地図

経路データ

SID SEASON NUMBER BASIN SUBBASIN NAME ISO_TIME NATURE LAT LON WMO_WIND WMO_PRES WMO_AGENCY TRACK_TYPE DIST2LAND LANDFALL IFLAG USA_AGENCY USA_ATCF_ID USA_LAT USA_LON USA_RECORD USA_STATUS USA_WIND USA_PRES USA_SSHS USA_R34_NE USA_R34_SE USA_R34_SW USA_R34_NW USA_R50_NE USA_R50_SE USA_R50_SW USA_R50_NW USA_R64_NE USA_R64_SE USA_R64_SW USA_R64_NW USA_POCI USA_ROCI USA_RMW USA_EYE TOKYO_LAT TOKYO_LON TOKYO_GRADE TOKYO_WIND TOKYO_PRES TOKYO_R50_DIR TOKYO_R50_LONG TOKYO_R50_SHORT TOKYO_R30_DIR TOKYO_R30_LONG TOKYO_R30_SHORT TOKYO_LAND CMA_LAT CMA_LON CMA_CAT CMA_WIND CMA_PRES HKO_LAT HKO_LON HKO_CAT HKO_WIND HKO_PRES NEWDELHI_LAT NEWDELHI_LON NEWDELHI_GRADE NEWDELHI_WIND NEWDELHI_PRES NEWDELHI_CI NEWDELHI_DP NEWDELHI_POCI REUNION_LAT REUNION_LON REUNION_TYPE REUNION_WIND REUNION_PRES REUNION_TNUM REUNION_CI REUNION_RMW REUNION_R34_NE REUNION_R34_SE REUNION_R34_SW REUNION_R34_NW REUNION_R50_NE REUNION_R50_SE REUNION_R50_SW REUNION_R50_NW REUNION_R64_NE REUNION_R64_SE REUNION_R64_SW REUNION_R64_NW BOM_LAT BOM_LON BOM_TYPE BOM_WIND BOM_PRES BOM_TNUM BOM_CI BOM_RMW BOM_R34_NE BOM_R34_SE BOM_R34_SW BOM_R34_NW BOM_R50_NE BOM_R50_SE BOM_R50_SW BOM_R50_NW BOM_R64_NE BOM_R64_SE BOM_R64_SW BOM_R64_NW BOM_ROCI BOM_POCI BOM_EYE BOM_POS_METHOD BOM_PRES_METHOD NADI_LAT NADI_LON NADI_CAT NADI_WIND NADI_PRES WELLINGTON_LAT WELLINGTON_LON WELLINGTON_WIND WELLINGTON_PRES DS824_LAT DS824_LON DS824_STAGE DS824_WIND DS824_PRES TD9636_LAT TD9636_LON TD9636_STAGE TD9636_WIND TD9636_PRES TD9635_LAT TD9635_LON TD9635_WIND TD9635_PRES TD9635_ROCI NEUMANN_LAT NEUMANN_LON NEUMANN_CLASS NEUMANN_WIND NEUMANN_PRES MLC_LAT MLC_LON MLC_CLASS MLC_WIND MLC_PRES USA_GUST BOM_GUST BOM_GUST_PER REUNION_GUST REUNION_GUST_PER USA_SEAHGT USA_SEARAD_NE USA_SEARAD_SE USA_SEARAD_SW USA_SEARAD_NW STORM_SPEED STORM_DIR
1932043S14052 1932 15 SI MM NOT_NAMED 1932-02-12 00:00:00 TS -13.8000 51.6000 main 162 151 _________OO___ -1 -13.8000 51.6000 TC 35 -13.8000 51.6000 2 4 213
1932043S14052 1932 15 SI MM NOT_NAMED 1932-02-12 03:00:00 TS -13.9492 51.5003 main 151 140 _________PP___ -1 -13.9500 51.5100 TC 35 -13.9484 51.4907 2 4 215
1932043S14052 1932 15 SI MM NOT_NAMED 1932-02-12 06:00:00 TS -14.0987 51.3875 main 140 126 _________OP___ -1 -14.1000 51.4000 TC 35 -14.0975 51.3750 2 4 219
1932043S14052 1932 15 SI MM NOT_NAMED 1932-02-12 09:00:00 TS -14.2489 51.2522 main 126 99 _________PP___ -1 -14.2500 51.2575 TC 35 -14.2478 51.2469 2 4 223
1932043S14052 1932 15 SI MM NOT_NAMED 1932-02-12 12:00:00 TS -14.4000 51.1000 main 99 86 _________OO___ -1 -14.4000 51.1000 TC 35 -14.4000 51.1000 2 4 225
1932043S14052 1932 15 SI MM NOT_NAMED 1932-02-12 15:00:00 TS -14.5520 50.9444 main 72 58 _________PP___ -1 -14.5500 50.9575 TC 35 -14.5541 50.9313 2 4 226
1932043S14052 1932 15 SI MM NOT_NAMED 1932-02-12 18:00:00 TS -14.7038 50.7750 main 58 34 _________OP___ -1 -14.7000 50.8000 TC 35 -14.7076 50.7501 2 5 229
1932043S14052 1932 15 SI MM NOT_NAMED 1932-02-12 21:00:00 TS -14.8574 50.5844 main 31 10 _________PP___ -1 -14.8575 50.6000 TC 35 -14.8572 50.5688 2 5 231
1932043S14052 1932 15 SI MM NOT_NAMED 1932-02-13 00:00:00 TS -15.0000 50.4000 main 10 0 _________OO___ -1 -15.0000 50.4000 TC 35 -15.0000 50.4000 2 4 231
1932043S14052 1932 15 SI MM NOT_NAMED 1932-02-13 03:00:00 TS -15.1160 50.2518 main 0 0 _________PP___ -1 -15.1000 50.2350 TC 35 -15.1321 50.2686 2 4 229
1932043S14052 1932 15 SI MM NOT_NAMED 1932-02-13 06:00:00 TS -15.2287 50.1249 main 0 0 _________OP___ -1 -15.2000 50.1000 TC 35 -15.2574 50.1498 2 3 223
1932043S14052 1932 15 SI MM NOT_NAMED 1932-02-13 09:00:00 TS -15.3607 50.0155 main 0 0 _________PP___ -1 -15.3425 50.0000 TC 35 -15.3790 50.0311 2 3 219
1932043S14052 1932 15 SI MM NOT_NAMED 1932-02-13 12:00:00 TS -15.5000 49.9000 main 10 10 _________OO___ -1 -15.5000 49.9000 TC 35 -15.5000 49.9000 2 4 223
1932043S14052 1932 15 SI MM NOT_NAMED 1932-02-13 15:00:00 TS -15.6393 49.7441 main 10 0 _________PP___ -1 -15.6575 49.7650 TC 35 -15.6210 49.7232 2 4 230
1932043S14052 1932 15 SI MM NOT_NAMED 1932-02-13 18:00:00 TS -15.7713 49.5675 main 0 0 _________OP___ -1 -15.8000 49.6000 TC 35 -15.7426 49.5351 2 4 235
1932043S14052 1932 15 SI MM NOT_NAMED 1932-02-13 21:00:00 TS -15.8840 49.3735 main 0 0 _________PP___ -1 -15.9000 49.3925 TC 35 -15.8679 49.3544 2 4 237
1932043S14052 1932 15 SI MM NOT_NAMED 1932-02-14 00:00:00 TS -16.0000 49.2000 main 0 0 _________OO___ -1 -16.0000 49.2000 TC 35 -16.0000 49.2000 2 4 228
1932043S14052 1932 15 SI MM NOT_NAMED 1932-02-14 03:00:00 TS -16.1406 49.0787 main 0 0 _________PP___ -1 -16.1425 49.0775 TC 35 -16.1387 49.0800 2 4 214
1932043S14052 1932 15 SI MM NOT_NAMED 1932-02-14 06:00:00 TS -16.2925 48.9950 main 0 0 _________OP___ -1 -16.3000 49.0000 TC 35 -16.2849 48.9900 2 3 206
1932043S14052 1932 15 SI MM NOT_NAMED 1932-02-14 09:00:00 TS -16.4406 48.9325 main 0 0 _________PP___ -1 -16.4425 48.9350 TC 35 -16.4387 48.9300 2 3 195
1932043S14052 1932 15 SI MM NOT_NAMED 1932-02-14 12:00:00 TS -16.6000 48.9000 main 0 0 _________OO___ -1 -16.6000 48.9000 TC 35 -16.6000 48.9000 2 3 185
1932043S14052 1932 15 SI MM NOT_NAMED 1932-02-14 15:00:00 TS -16.7842 48.8918 main 0 0 _________PP___ -1 -16.8000 48.8850 TC 35 -16.7685 48.8987 2 4 0
1932043S14052 1932 15 SI MM NOT_NAMED 1932-02-14 18:00:00 TS -16.9713 48.9099 main 0 0 _________OP___ -1 -17.0000 48.9000 TC 35 -16.9425 48.9199 2 4 170
1932043S14052 1932 15 SI MM NOT_NAMED 1932-02-14 21:00:00 TS -17.1414 48.9493 main 0 0 _________PP___ -1 -17.1625 48.9425 TC 35 -17.1203 48.9561 2 3 165
1932043S14052 1932 15 SI MM NOT_NAMED 1932-02-15 00:00:00 TS -17.3000 49.0000 main 0 _________OO___ -1 -17.3000 49.0000 TC 35 -17.3000 49.0000 2 3 166

IBTrACS Databaseについて

本データベースは、米国NOAAが公開する1842年以降の世界の熱帯低気圧のベストトラックデータアーカイブInternational Best Track Archive for Climate Stewardship (IBTrACS)を、ウェブで閲覧しやすい形式に変換したものです。

最終更新日:2021-11-26